Time;durP1;ratioP1;P1;durP2;ratioP2;P2;SDS_P1;SDS_P2;PMS_P1;PMS_P2;Temp;Humidity;BMP_temperature;BMP_pressure;BME280_temperature;BME280_humidity;BME280_pressure;Samples;Min_cycle;Max_cycle;Signal;HPM_P1;HPM_P2
2022/10/18 00:00:00;;;;;;;10.68;9.65;;;15.70;99.90;;;;;;5065180;28;20437;-69
2022/10/18 00:02:26;;;;;;;10.55;9.13;;;15.70;99.90;;;;;;5069592;28;20443;-69
2022/10/18 00:04:53;;;;;;;11.27;9.70;;;15.70;99.90;;;;;;5070205;28;20426;-69
2022/10/18 00:07:20;;;;;;;10.87;9.80;;;15.70;99.90;;;;;;5069261;28;20431;-69
2022/10/18 00:09:47;;;;;;;10.70;9.50;;;15.70;99.90;;;;;;5072908;28;20990;-71
2022/10/18 00:12:13;;;;;;;10.75;9.65;;;15.70;99.90;;;;;;5066389;28;20433;-69
2022/10/18 00:14:41;;;;;;;12.85;11.45;;;15.70;99.90;;;;;;5067314;28;20919;-68
2022/10/18 00:17:08;;;;;;;13.23;11.90;;;15.70;99.90;;;;;;5058359;28;20438;-70
2022/10/18 00:19:35;;;;;;;13.90;12.47;;;15.70;99.90;;;;;;5064981;28;20430;-70
2022/10/18 00:22:02;;;;;;;18.33;13.80;;;15.70;99.90;;;;;;5065874;28;20514;-70
2022/10/18 00:24:28;;;;;;;15.20;13.25;;;15.70;99.90;;;;;;5068882;28;20434;-70
2022/10/18 00:26:55;;;;;;;14.02;12.63;;;15.70;99.90;;;;;;5066581;28;20435;-69
2022/10/18 00:29:22;;;;;;;13.93;12.48;;;15.70;99.90;;;;;;5070212;28;20828;-69
2022/10/18 00:31:50;;;;;;;14.50;13.10;;;15.60;99.90;;;;;;5072202;28;21124;-69
2022/10/18 00:34:17;;;;;;;15.70;14.10;;;15.60;99.90;;;;;;5054078;28;21142;-69
2022/10/18 00:36:45;;;;;;;17.40;15.60;;;15.60;99.90;;;;;;5062615;28;21080;-69
2022/10/18 00:39:16;;;;;;;17.73;15.93;;;15.60;99.90;;;;;;5057696;28;20919;-69
2022/10/18 00:41:43;;;;;;;18.02;16.10;;;15.60;99.90;;;;;;5058886;28;20921;-69
2022/10/18 00:44:43;;;;;;;17.10;15.40;;;15.60;99.90;;;;;;5064796;28;20436;-69
2022/10/18 00:47:14;;;;;;;20.27;16.88;;;15.60;99.90;;;;;;5074410;28;20449;-69
2022/10/18 00:49:43;;;;;;;18.95;16.50;;;15.70;99.90;;;;;;5069700;28;20430;-70
2022/10/18 00:52:13;;;;;;;17.17;15.38;;;15.60;99.90;;;;;;5058732;28;20435;-71
2022/10/18 00:54:42;;;;;;;18.65;15.93;;;15.60;99.90;;;;;;5058836;28;20436;-70
2022/10/18 00:57:10;;;;;;;16.23;14.52;;;15.60;99.90;;;;;;5065475;28;20435;-69
2022/10/18 00:59:37;;;;;;;16.80;14.97;;;15.60;99.90;;;;;;5060850;28;20486;-69
2022/10/18 01:02:05;;;;;;;19.15;16.05;;;15.60;99.90;;;;;;5064673;28;20446;-71
2022/10/18 01:04:34;;;;;;;18.88;16.88;;;15.60;99.90;;;;;;5067840;28;20428;-69
2022/10/18 01:07:08;;;;;;;19.17;17.17;;;15.70;99.90;;;;;;5069497;28;21262;-70
2022/10/18 01:09:42;;;;;;;19.20;17.20;;;15.70;99.90;;;;;;5072115;28;20435;-69
2022/10/18 01:12:20;;;;;;;18.17;16.38;;;15.70;99.90;;;;;;5070129;28;20433;-69
2022/10/18 01:14:53;;;;;;;19.88;17.88;;;15.70;99.90;;;;;;5061252;28;20440;-70
2022/10/18 01:17:27;;;;;;;19.05;17.05;;;15.70;99.90;;;;;;5061062;28;20427;-69
2022/10/18 01:20:31;;;;;;;20.55;18.35;;;15.80;99.90;;;;;;5062136;28;20433;-69
2022/10/18 01:23:07;;;;;;;18.63;16.83;;;15.80;99.90;;;;;;5066049;28;20434;-69
2022/10/18 01:25:41;;;;;;;21.27;17.20;;;15.80;99.90;;;;;;5067555;28;20455;-69
2022/10/18 01:28:19;;;;;;;21.58;18.15;;;15.80;99.90;;;;;;5061928;28;20443;-71
2022/10/18 01:30:54;;;;;;;24.08;18.10;;;15.80;99.90;;;;;;5064418;28;20449;-68
2022/10/18 01:33:30;;;;;;;24.77;18.75;;;15.70;99.90;;;;;;5083904;22;20441;-69
2022/10/18 01:36:01;;;;;;;19.77;17.30;;;15.70;99.90;;;;;;5071935;28;20424;-70
2022/10/18 01:38:31;;;;;;;19.50;17.45;;;15.70;99.90;;;;;;5066621;28;20425;-69
2022/10/18 01:41:00;;;;;;;19.95;17.80;;;15.80;99.90;;;;;;5077279;28;20446;-70
2022/10/18 01:43:28;;;;;;;22.67;18.13;;;15.80;99.90;;;;;;5078161;28;20427;-69
2022/10/18 01:45:59;;;;;;;22.02;18.33;;;15.80;99.90;;;;;;5069857;28;20420;-70
2022/10/18 01:48:26;;;;;;;20.00;18.00;;;15.80;99.90;;;;;;5067247;28;20428;-70
2022/10/18 01:50:53;;;;;;;25.58;20.63;;;15.80;99.90;;;;;;5070996;28;20433;-70
2022/10/18 01:53:22;;;;;;;20.90;18.63;;;15.80;99.90;;;;;;5083443;28;20413;-69
2022/10/18 01:55:57;;;;;;;20.30;18.10;;;15.80;99.90;;;;;;5093455;28;20430;-70
2022/10/18 01:58:30;;;;;;;23.10;19.00;;;15.80;99.90;;;;;;5077679;28;20434;-72
2022/10/18 02:01:05;;;;;;;24.35;19.30;;;15.70;99.90;;;;;;5065499;28;20423;-71
2022/10/18 02:03:34;;;;;;;24.88;19.00;;;15.70;99.90;;;;;;5061027;28;20432;-70
2022/10/18 02:06:08;;;;;;;25.33;18.65;;;15.80;99.90;;;;;;5066496;28;20435;-70
2022/10/18 02:08:40;;;;;;;22.42;18.88;;;15.80;99.90;;;;;;5064477;28;20431;-71
2022/10/18 02:11:08;;;;;;;26.98;21.23;;;15.80;99.90;;;;;;5063874;28;20439;-71
2022/10/18 02:13:38;;;;;;;28.08;21.00;;;15.80;99.90;;;;;;5066009;28;20587;-70
2022/10/18 02:16:13;;;;;;;24.38;19.30;;;15.80;99.90;;;;;;5065303;28;20438;-71
2022/10/18 02:18:42;;;;;;;22.65;18.73;;;15.80;99.90;;;;;;5067270;28;20427;-71
2022/10/18 02:21:12;;;;;;;23.50;19.30;;;15.70;99.90;;;;;;5066864;28;20438;-70
2022/10/18 02:23:39;;;;;;;27.38;21.20;;;15.70;99.90;;;;;;5097010;28;20487;-69
2022/10/18 02:26:06;;;;;;;27.58;20.75;;;15.70;99.90;;;;;;5095691;28;20491;-71
2022/10/18 02:28:33;;;;;;;22.58;18.77;;;15.80;99.90;;;;;;5093516;28;20420;-70
2022/10/18 02:31:06;;;;;;;23.25;18.33;;;15.70;99.90;;;;;;5073185;28;20447;-69
2022/10/18 02:33:42;;;;;;;27.42;20.25;;;15.70;99.90;;;;;;5066770;28;20424;-70
2022/10/18 02:36:13;;;;;;;24.77;19.70;;;15.70;99.90;;;;;;5060237;28;20424;-69
2022/10/18 02:38:41;;;;;;;24.35;19.48;;;15.80;99.90;;;;;;5059947;28;20433;-71
2022/10/18 02:41:08;;;;;;;23.90;19.85;;;15.80;99.90;;;;;;5067330;28;20423;-71
2022/10/18 02:43:35;;;;;;;24.52;19.45;;;15.80;99.90;;;;;;5068451;28;20443;-71
2022/10/18 02:46:02;;;;;;;26.38;21.50;;;15.70;99.90;;;;;;5076564;28;20420;-70
2022/10/18 02:48:29;;;;;;;23.70;19.83;;;15.80;99.90;;;;;;5095936;28;20933;-70
2022/10/18 02:50:57;;;;;;;25.98;20.95;;;15.70;99.90;;;;;;5084001;28;20490;-71
2022/10/18 02:53:24;;;;;;;27.20;20.75;;;15.70;99.90;;;;;;5075763;28;20434;-70
2022/10/18 02:55:51;;;;;;;32.60;21.13;;;15.70;99.90;;;;;;5071381;28;20446;-70
2022/10/18 02:58:18;;;;;;;28.30;20.40;;;15.70;99.90;;;;;;5071469;28;20432;-69
2022/10/18 03:00:44;;;;;;;24.42;18.90;;;15.70;99.90;;;;;;5069373;28;20458;-70
2022/10/18 03:03:11;;;;;;;30.40;21.92;;;15.70;99.90;;;;;;5068714;28;20435;-69
2022/10/18 03:05:38;;;;;;;29.42;22.27;;;15.70;99.90;;;;;;5071757;28;20427;-69
2022/10/18 03:08:06;;;;;;;27.65;20.65;;;15.70;99.90;;;;;;5066447;28;20952;-69
2022/10/18 03:10:33;;;;;;;28.50;20.40;;;15.70;99.90;;;;;;5068554;28;20447;-69
2022/10/18 03:12:59;;;;;;;34.30;23.77;;;15.70;99.90;;;;;;5063949;28;20427;-68
2022/10/18 03:15:26;;;;;;;32.08;23.55;;;15.70;99.90;;;;;;5071013;28;20913;-68
2022/10/18 03:17:53;;;;;;;22.85;20.15;;;15.70;99.90;;;;;;5061069;28;20429;-71
2022/10/18 03:20:20;;;;;;;23.60;21.00;;;15.80;99.90;;;;;;5066763;28;20926;-70
2022/10/18 03:22:47;;;;;;;26.05;20.10;;;15.70;99.90;;;;;;5067274;28;20438;-70
2022/10/18 03:25:15;;;;;;;29.85;21.10;;;15.70;99.90;;;;;;5068037;28;20451;-69
2022/10/18 03:27:42;;;;;;;26.15;21.05;;;15.70;99.90;;;;;;5070550;28;20945;-69
2022/10/18 03:30:10;;;;;;;24.23;20.98;;;15.70;99.90;;;;;;5070955;28;20801;-70
2022/10/18 03:32:37;;;;;;;26.75;21.25;;;15.70;99.90;;;;;;5063811;28;20463;-70
2022/10/18 03:35:04;;;;;;;29.73;22.30;;;15.60;99.90;;;;;;5069456;28;20437;-69
2022/10/18 03:37:31;;;;;;;33.20;22.65;;;15.70;99.90;;;;;;5066211;28;20432;-69
2022/10/18 03:39:57;;;;;;;38.85;24.85;;;15.70;99.90;;;;;;5081978;28;20411;-69
2022/10/18 03:42:26;;;;;;;25.33;20.73;;;15.70;99.90;;;;;;5062545;28;20434;-69
2022/10/18 03:44:53;;;;;;;32.83;23.25;;;15.70;99.90;;;;;;5069099;28;20911;-69
2022/10/18 03:47:19;;;;;;;32.83;22.80;;;15.70;99.90;;;;;;5070798;28;20454;-69
2022/10/18 03:49:46;;;;;;;33.20;23.73;;;15.70;99.90;;;;;;5070919;28;20428;-69
2022/10/18 03:52:13;;;;;;;26.43;19.30;;;15.70;99.90;;;;;;5063809;28;20476;-69
2022/10/18 03:54:40;;;;;;;24.98;19.50;;;15.70;99.90;;;;;;5066373;28;20458;-69
2022/10/18 03:57:06;;;;;;;35.38;21.75;;;15.70;99.90;;;;;;5062484;28;20444;-68
2022/10/18 03:59:34;;;;;;;22.48;19.42;;;15.70;99.90;;;;;;5072414;28;20431;-69
2022/10/18 04:02:01;;;;;;;29.30;21.20;;;15.60;99.90;;;;;;5069058;28;20917;-69
2022/10/18 04:04:28;;;;;;;26.77;20.33;;;15.60;99.90;;;;;;5066360;28;20435;-69
2022/10/18 04:06:55;;;;;;;34.83;21.70;;;15.60;99.90;;;;;;5065410;28;20538;-69
2022/10/18 04:09:22;;;;;;;34.17;23.27;;;15.70;99.90;;;;;;5067005;28;20508;-68
2022/10/18 04:11:50;;;;;;;27.60;21.00;;;15.70;99.90;;;;;;5061362;28;20415;-69
2022/10/18 04:14:17;;;;;;;26.38;20.23;;;15.60;99.90;;;;;;5071648;28;20457;-71
2022/10/18 04:16:45;;;;;;;33.97;21.90;;;15.70;99.90;;;;;;5066084;28;20881;-71
2022/10/18 04:19:12;;;;;;;39.45;23.05;;;15.70;99.90;;;;;;5075491;28;20411;-70
2022/10/18 04:21:39;;;;;;;21.77;17.73;;;15.70;99.90;;;;;;5070183;28;20411;-70
2022/10/18 04:24:06;;;;;;;22.73;18.35;;;15.70;99.90;;;;;;5066084;28;20427;-70
2022/10/18 04:26:33;;;;;;;29.15;20.63;;;15.60;99.90;;;;;;5064277;28;20431;-70
2022/10/18 04:28:59;;;;;;;25.20;19.17;;;15.60;99.90;;;;;;5060491;28;20427;-69
2022/10/18 04:31:26;;;;;;;25.40;18.95;;;15.60;99.90;;;;;;5069247;28;20434;-70
2022/10/18 04:33:55;;;;;;;24.88;18.50;;;15.50;99.90;;;;;;5066519;28;20435;-70
2022/10/18 04:36:21;;;;;;;32.20;21.98;;;15.50;99.90;;;;;;5058273;28;20434;-70
2022/10/18 04:38:48;;;;;;;35.95;24.98;;;15.50;99.90;;;;;;5068747;28;20439;-70
2022/10/18 04:41:15;;;;;;;31.83;21.27;;;15.50;99.90;;;;;;5061632;28;20430;-70
2022/10/18 04:43:42;;;;;;;35.20;22.20;;;15.50;99.90;;;;;;5068494;28;20427;-71
2022/10/18 04:46:08;;;;;;;34.38;22.67;;;15.60;99.90;;;;;;5066975;28;20428;-70
2022/10/18 04:48:35;;;;;;;34.92;20.60;;;15.60;99.90;;;;;;5066663;28;20427;-70
2022/10/18 04:51:03;;;;;;;29.73;20.67;;;15.60;99.90;;;;;;5068942;28;20882;-70
2022/10/18 04:53:30;;;;;;;26.50;19.85;;;15.60;99.90;;;;;;5067332;28;20450;-70
2022/10/18 04:55:57;;;;;;;23.38;19.00;;;15.60;99.90;;;;;;5066772;28;20431;-70
2022/10/18 04:58:24;;;;;;;30.08;20.40;;;15.60;99.90;;;;;;5067461;28;20435;-70
2022/10/18 05:00:51;;;;;;;24.00;19.25;;;15.60;99.90;;;;;;5072654;28;20509;-70
2022/10/18 05:03:18;;;;;;;28.70;20.52;;;15.60;99.90;;;;;;5061481;28;20433;-71
2022/10/18 05:05:45;;;;;;;26.75;19.85;;;15.60;99.90;;;;;;5064802;28;20432;-71
2022/10/18 05:08:13;;;;;;;26.23;19.70;;;15.60;99.90;;;;;;5069292;28;20411;-70
2022/10/18 05:10:40;;;;;;;24.95;17.65;;;15.60;99.90;;;;;;5071536;28;20423;-70
2022/10/18 05:13:06;;;;;;;24.75;18.73;;;15.60;99.90;;;;;;5069086;28;20432;-71
2022/10/18 05:15:33;;;;;;;19.85;17.38;;;15.60;99.90;;;;;;5069813;28;20435;-70
2022/10/18 05:18:00;;;;;;;30.85;19.23;;;15.60;99.90;;;;;;5071362;28;20435;-71
2022/10/18 05:20:26;;;;;;;22.90;18.55;;;15.60;99.90;;;;;;5088847;28;20408;-72
2022/10/18 05:22:53;;;;;;;24.58;19.27;;;15.60;99.90;;;;;;5094656;28;20411;-71
2022/10/18 05:25:21;;;;;;;26.60;19.20;;;15.60;99.90;;;;;;5095060;28;20404;-68
2022/10/18 05:27:48;;;;;;;20.40;17.35;;;15.60;99.90;;;;;;5094152;28;20425;-68
2022/10/18 05:30:15;;;;;;;28.85;19.67;;;15.60;99.90;;;;;;5064070;28;20458;-71
2022/10/18 05:32:41;;;;;;;22.70;17.30;;;15.60;99.90;;;;;;5067786;28;20446;-69
2022/10/18 05:35:08;;;;;;;19.95;16.85;;;15.60;99.90;;;;;;5060284;28;20433;-70
2022/10/18 05:37:35;;;;;;;19.50;16.45;;;15.60;99.90;;;;;;5061358;28;20441;-69
2022/10/18 05:40:02;;;;;;;26.65;19.50;;;15.60;99.90;;;;;;5072013;28;20431;-70
2022/10/18 05:42:31;;;;;;;25.73;18.85;;;15.60;99.90;;;;;;5068071;28;20439;-69
2022/10/18 05:44:58;;;;;;;18.20;16.20;;;15.60;99.90;;;;;;5074326;28;20467;-69
2022/10/18 05:47:25;;;;;;;18.02;16.13;;;15.60;99.90;;;;;;5068480;28;20510;-70
2022/10/18 05:49:51;;;;;;;24.23;17.85;;;15.60;99.90;;;;;;5067559;28;20439;-70
2022/10/18 05:52:18;;;;;;;22.48;17.25;;;15.60;99.90;;;;;;5060186;28;20412;-69
2022/10/18 05:54:45;;;;;;;25.95;18.52;;;15.60;99.90;;;;;;5068714;28;20837;-70
2022/10/18 05:57:11;;;;;;;22.42;19.20;;;15.60;99.90;;;;;;5068031;28;20919;-71
2022/10/18 05:59:40;;;;;;;22.40;18.45;;;15.60;99.90;;;;;;5061127;28;20428;-69
2022/10/18 06:02:06;;;;;;;27.60;18.70;;;15.60;99.90;;;;;;5056481;28;21776;-71
2022/10/18 06:04:34;;;;;;;25.93;19.00;;;15.60;99.90;;;;;;5063966;28;20423;-71
2022/10/18 06:07:01;;;;;;;25.58;20.30;;;15.60;99.90;;;;;;5060276;28;20415;-70
2022/10/18 06:09:29;;;;;;;27.05;20.90;;;15.60;99.90;;;;;;5078271;28;20425;-71
2022/10/18 06:11:56;;;;;;;24.80;19.80;;;15.60;99.90;;;;;;5069710;28;20434;-71
2022/10/18 06:14:23;;;;;;;29.30;21.83;;;15.60;99.90;;;;;;5070412;28;20461;-71
2022/10/18 06:16:51;;;;;;;26.55;20.20;;;15.60;99.90;;;;;;5072471;28;20427;-72
2022/10/18 06:19:18;;;;;;;28.50;21.33;;;15.60;99.90;;;;;;5067240;28;20433;-70
2022/10/18 06:21:45;;;;;;;28.40;20.63;;;15.60;99.90;;;;;;5061143;28;20423;-71
2022/10/18 06:24:12;;;;;;;26.33;19.85;;;15.60;99.90;;;;;;5067129;28;20441;-70
2022/10/18 06:26:38;;;;;;;27.70;20.03;;;15.60;99.90;;;;;;5076183;28;20522;-70
2022/10/18 06:29:05;;;;;;;27.00;19.00;;;15.60;99.90;;;;;;5062565;28;20862;-71
2022/10/18 06:31:32;;;;;;;26.15;19.95;;;15.60;99.90;;;;;;5062798;28;20419;-70
2022/10/18 06:34:01;;;;;;;28.23;20.60;;;15.60;99.90;;;;;;5070075;28;20427;-70
2022/10/18 06:36:28;;;;;;;31.02;21.40;;;15.60;99.90;;;;;;5063613;28;20521;-69
2022/10/18 06:38:56;;;;;;;30.38;21.67;;;15.60;99.90;;;;;;5067433;28;20456;-69
2022/10/18 06:41:23;;;;;;;21.42;16.88;;;15.60;99.90;;;;;;5071677;28;21007;-69
2022/10/18 06:43:50;;;;;;;23.90;18.53;;;15.60;99.90;;;;;;5070730;28;20801;-69
2022/10/18 06:46:17;;;;;;;24.90;19.27;;;15.50;99.90;;;;;;5067405;28;20435;-69
2022/10/18 06:48:44;;;;;;;23.65;18.85;;;15.60;99.90;;;;;;5066252;28;20427;-70
2022/10/18 06:51:12;;;;;;;23.35;19.20;;;15.60;99.90;;;;;;5063122;28;20441;-70
2022/10/18 06:53:40;;;;;;;31.08;20.75;;;15.60;99.90;;;;;;5062657;28;20446;-70
2022/10/18 06:56:08;;;;;;;27.17;21.10;;;15.60;99.90;;;;;;5067612;28;20483;-70
2022/10/18 06:58:35;;;;;;;21.02;18.60;;;15.60;99.90;;;;;;5069791;28;20435;-71
2022/10/18 07:01:06;;;;;;;23.58;18.92;;;15.60;99.90;;;;;;5063757;28;20417;-70
2022/10/18 07:03:34;;;;;;;29.80;20.55;;;15.60;99.90;;;;;;5066364;28;20437;-70
2022/10/18 07:06:02;;;;;;;30.05;21.00;;;15.60;99.90;;;;;;5066772;28;20923;-70
2022/10/18 07:08:30;;;;;;;26.00;19.23;;;15.70;99.90;;;;;;5087533;28;20442;-70
2022/10/18 07:10:57;;;;;;;26.23;19.35;;;15.70;99.90;;;;;;5080843;28;20423;-70
2022/10/18 07:13:24;;;;;;;25.33;19.00;;;15.60;99.90;;;;;;5071208;28;20419;-70
2022/10/18 07:16:04;;;;;;;26.20;19.33;;;15.70;99.90;;;;;;5071104;28;20903;-69
2022/10/18 07:18:31;;;;;;;29.65;20.00;;;15.70;99.90;;;;;;5068086;28;20506;-70
2022/10/18 07:21:01;;;;;;;27.35;20.70;;;15.70;99.90;;;;;;5064010;28;20424;-69
2022/10/18 07:23:28;;;;;;;28.98;20.20;;;15.70;99.90;;;;;;5069958;28;20426;-70
2022/10/18 07:25:56;;;;;;;23.20;19.23;;;15.70;99.90;;;;;;5062894;28;20789;-69
2022/10/18 07:28:22;;;;;;;24.90;19.67;;;15.70;99.90;;;;;;5070215;28;20434;-70
2022/10/18 07:30:49;;;;;;;21.55;17.80;;;15.70;99.90;;;;;;5070068;28;20446;-71
2022/10/18 07:33:16;;;;;;;21.25;17.85;;;15.70;99.90;;;;;;5059199;28;20409;-69
2022/10/18 07:35:43;;;;;;;27.05;19.55;;;15.70;99.90;;;;;;5066418;28;20435;-70
2022/10/18 07:38:10;;;;;;;22.77;17.67;;;15.70;99.90;;;;;;5070721;28;20411;-70
2022/10/18 07:40:37;;;;;;;21.90;18.27;;;15.60;99.90;;;;;;5071730;28;20518;-71
2022/10/18 07:43:05;;;;;;;23.47;18.50;;;15.60;99.90;;;;;;5071175;28;20909;-72
2022/10/18 07:45:32;;;;;;;19.75;16.88;;;15.60;99.90;;;;;;5073781;28;20415;-70
2022/10/18 07:47:59;;;;;;;21.80;17.00;;;15.60;99.90;;;;;;5056916;28;21098;-70
2022/10/18 07:50:26;;;;;;;18.10;16.13;;;15.60;99.90;;;;;;5065700;28;20433;-69
2022/10/18 07:52:52;;;;;;;20.17;16.20;;;15.60;99.90;;;;;;5068931;28;20411;-70
2022/10/18 07:55:19;;;;;;;17.95;14.95;;;15.60;99.90;;;;;;5065878;28;20426;-69
2022/10/18 07:57:46;;;;;;;18.58;15.10;;;15.70;99.90;;;;;;5071333;28;20829;-69
2022/10/18 08:00:14;;;;;;;17.40;14.80;;;15.70;99.90;;;;;;5070045;28;20423;-69
2022/10/18 08:02:41;;;;;;;19.95;15.90;;;15.70;99.90;;;;;;5060164;28;20431;-69
2022/10/18 08:05:09;;;;;;;22.20;17.10;;;15.70;99.90;;;;;;5061336;28;20436;-69
2022/10/18 08:07:35;;;;;;;23.40;17.75;;;15.70;99.90;;;;;;5063535;28;20463;-70
2022/10/18 08:10:03;;;;;;;27.57;21.20;;;15.70;99.90;;;;;;5068725;28;20427;-70
2022/10/18 08:12:29;;;;;;;28.10;19.55;;;15.80;99.90;;;;;;5067381;28;20432;-69
2022/10/18 08:14:56;;;;;;;31.58;20.05;;;15.80;99.90;;;;;;5057992;28;20420;-69
2022/10/18 08:17:24;;;;;;;37.65;23.20;;;15.80;99.90;;;;;;5058149;28;20431;-69
2022/10/18 08:19:51;;;;;;;48.10;25.33;;;15.80;99.90;;;;;;5063973;28;20432;-70
2022/10/18 08:22:18;;;;;;;49.88;26.13;;;15.80;99.90;;;;;;5061570;28;20414;-70
2022/10/18 08:24:44;;;;;;;49.80;28.55;;;15.80;99.90;;;;;;5063701;28;20430;-70
2022/10/18 08:27:11;;;;;;;52.92;28.63;;;15.80;99.90;;;;;;5066413;28;20412;-71
2022/10/18 08:29:38;;;;;;;54.33;28.92;;;15.80;99.90;;;;;;5069791;28;20430;-70
2022/10/18 08:32:06;;;;;;;52.88;28.08;;;15.70;99.90;;;;;;5069472;28;20948;-70
2022/10/18 08:34:34;;;;;;;54.33;28.90;;;15.70;99.90;;;;;;5070695;28;20479;-71
2022/10/18 08:37:01;;;;;;;50.97;27.83;;;15.70;99.90;;;;;;5067295;28;20438;-70
2022/10/18 08:39:28;;;;;;;57.70;28.08;;;15.70;99.90;;;;;;5066743;28;20411;-70
2022/10/18 08:42:16;;;;;;;48.85;27.20;;;15.70;99.90;;;;;;5064598;28;20417;-69
2022/10/18 08:44:47;;;;;;;55.30;29.35;;;15.70;99.90;;;;;;5067644;28;20412;-69
2022/10/18 08:47:17;;;;;;;57.90;29.35;;;15.70;99.90;;;;;;5064713;28;20930;-69
2022/10/18 08:49:49;;;;;;;60.90;29.25;;;15.70;99.90;;;;;;5066804;28;20826;-69
2022/10/18 08:52:31;;;;;;;57.45;29.83;;;15.80;99.90;;;;;;5058918;28;20419;-69
2022/10/18 08:55:02;;;;;;;61.60;30.27;;;15.80;99.90;;;;;;5066508;28;20420;-70
2022/10/18 08:57:30;;;;;;;55.33;30.38;;;15.80;99.90;;;;;;5067389;28;20427;-71
2022/10/18 08:59:57;;;;;;;57.50;28.35;;;15.80;99.90;;;;;;5061395;28;20416;-69
2022/10/18 09:02:39;;;;;;;51.33;29.30;;;15.80;99.90;;;;;;5067781;28;20743;-69
2022/10/18 09:05:19;;;;;;;61.85;29.40;;;15.80;99.90;;;;;;5064194;28;20431;-69
2022/10/18 09:08:01;;;;;;;66.70;30.38;;;15.80;99.90;;;;;;5068505;28;20407;-71
2022/10/18 09:10:42;;;;;;;62.65;33.33;;;15.80;99.90;;;;;;5068392;28;20424;-69
2022/10/18 09:13:26;;;;;;;67.38;32.15;;;15.80;99.90;;;;;;5068038;28;20423;-71
2022/10/18 09:15:56;;;;;;;71.35;35.30;;;15.80;99.90;;;;;;5068067;28;20435;-69
2022/10/18 09:18:39;;;;;;;84.30;35.90;;;15.80;99.90;;;;;;5066431;28;20415;-69
2022/10/18 09:21:18;;;;;;;81.00;35.58;;;15.80;99.90;;;;;;5059270;28;20420;-70
2022/10/18 09:23:48;;;;;;;77.53;35.40;;;15.90;99.90;;;;;;5059141;28;20425;-70
2022/10/18 09:26:18;;;;;;;78.03;33.80;;;15.90;99.90;;;;;;5054315;28;20492;-70
2022/10/18 09:28:58;;;;;;;68.07;32.40;;;15.90;99.90;;;;;;5065834;28;20525;-70
2022/10/18 09:31:32;;;;;;;72.38;32.00;;;15.90;99.90;;;;;;5064277;28;20439;-70
2022/10/18 09:34:01;;;;;;;68.15;32.42;;;15.90;99.90;;;;;;5058301;28;20439;-69
2022/10/18 09:36:34;;;;;;;70.38;32.88;;;15.90;99.90;;;;;;5066880;28;20434;-70
2022/10/18 09:39:05;;;;;;;71.55;33.22;;;16.00;99.90;;;;;;5071550;28;20939;-70
2022/10/18 09:41:37;;;;;;;77.27;34.43;;;16.10;99.90;;;;;;5064137;28;20520;-69
2022/10/18 09:44:10;;;;;;;78.80;34.30;;;16.00;99.90;;;;;;5066497;28;20929;-69
2022/10/18 09:46:40;;;;;;;78.70;33.28;;;16.10;99.90;;;;;;5068701;28;20423;-69
2022/10/18 09:49:15;;;;;;;74.15;32.92;;;16.20;99.90;;;;;;5064310;28;20436;-70
2022/10/18 09:51:44;;;;;;;73.30;32.67;;;16.20;99.90;;;;;;5055524;28;20417;-70
2022/10/18 09:54:20;;;;;;;68.63;33.00;;;16.30;99.90;;;;;;5068743;28;20610;-71
2022/10/18 09:57:04;;;;;;;68.47;31.40;;;16.30;99.90;;;;;;5070924;28;20429;-68
2022/10/18 09:59:42;;;;;;;71.43;34.27;;;16.30;99.90;;;;;;5076600;28;20454;-70
2022/10/18 10:02:13;;;;;;;68.13;33.50;;;16.30;99.90;;;;;;5062064;28;20800;-70
2022/10/18 10:04:40;;;;;;;69.75;34.88;;;16.30;99.90;;;;;;5068532;28;20439;-71
2022/10/18 10:07:12;;;;;;;70.90;35.38;;;16.30;99.90;;;;;;5068936;28;20415;-70
2022/10/18 10:09:44;;;;;;;73.35;35.72;;;16.30;99.90;;;;;;5069428;28;20415;-70
2022/10/18 10:12:26;;;;;;;67.90;35.40;;;16.30;99.90;;;;;;5069501;28;20431;-72
2022/10/18 10:14:53;;;;;;;66.10;33.55;;;16.40;99.90;;;;;;5069286;28;20419;-70
2022/10/18 10:17:26;;;;;;;64.27;34.10;;;16.40;99.90;;;;;;5069428;28;20428;-70
2022/10/18 10:19:58;;;;;;;64.05;33.22;;;16.50;99.90;;;;;;5069731;28;20502;-69
2022/10/18 10:22:34;;;;;;;59.53;31.77;;;16.50;99.90;;;;;;5066457;28;20801;-69
2022/10/18 10:25:02;;;;;;;58.38;32.55;;;16.50;99.90;;;;;;5078576;28;20431;-70
2022/10/18 10:27:33;;;;;;;54.45;32.22;;;16.60;99.90;;;;;;5063725;28;20425;-69
2022/10/18 10:30:01;;;;;;;59.97;32.97;;;16.60;99.90;;;;;;5070937;28;20431;-70
2022/10/18 10:32:30;;;;;;;56.67;34.40;;;16.50;99.90;;;;;;5078274;28;20408;-70
2022/10/18 10:34:58;;;;;;;52.40;34.65;;;16.60;99.90;;;;;;5076691;28;20428;-70
2022/10/18 10:37:33;;;;;;;47.17;32.20;;;16.60;99.90;;;;;;5073814;28;20431;-69
2022/10/18 10:40:15;;;;;;;47.47;32.10;;;16.60;99.90;;;;;;5084974;28;20412;-70
2022/10/18 10:43:01;;;;;;;40.90;29.50;;;16.70;99.90;;;;;;5089929;28;20488;-71
2022/10/18 10:45:30;;;;;;;28.67;23.03;;;16.80;99.90;;;;;;5084325;28;20427;-70
2022/10/18 10:48:08;;;;;;;33.92;24.75;;;16.90;99.90;;;;;;5079569;28;20459;-69
2022/10/18 10:50:51;;;;;;;37.67;27.05;;;16.90;99.90;;;;;;5083244;28;20436;-70
2022/10/18 10:53:42;;;;;;;35.55;26.38;;;17.00;99.90;;;;;;5074808;28;20427;-70
2022/10/18 10:56:20;;;;;;;34.40;27.47;;;17.00;99.90;;;;;;5057680;28;20417;-71
2022/10/18 10:58:48;;;;;;;32.40;24.45;;;17.00;99.90;;;;;;5064713;28;20446;-69
2022/10/18 11:01:24;;;;;;;34.77;26.60;;;17.00;99.90;;;;;;5075089;28;20450;-70
2022/10/18 11:03:53;;;;;;;36.10;26.07;;;17.00;99.90;;;;;;5092022;28;20431;-71
2022/10/18 11:06:39;;;;;;;34.40;26.17;;;17.10;99.90;;;;;;5081571;28;20416;-69
2022/10/18 11:09:19;;;;;;;32.90;26.48;;;17.20;99.90;;;;;;5078951;28;20465;-69
2022/10/18 11:11:58;;;;;;;36.05;27.15;;;17.30;99.90;;;;;;5087609;28;20408;-72
2022/10/18 11:14:29;;;;;;;33.75;26.92;;;17.30;99.90;;;;;;5073261;28;20410;-70
2022/10/18 11:17:05;;;;;;;33.35;26.13;;;17.30;99.90;;;;;;5091206;28;20434;-71
2022/10/18 11:19:40;;;;;;;36.40;27.83;;;17.40;99.90;;;;;;5096613;28;20419;-70
2022/10/18 11:22:15;;;;;;;37.08;27.55;;;17.40;99.90;;;;;;5082427;28;20398;-69
2022/10/18 11:24:43;;;;;;;35.00;27.05;;;17.50;99.90;;;;;;5095232;28;20427;-69
2022/10/18 11:27:16;;;;;;;37.25;27.23;;;17.60;99.90;;;;;;5087719;28;20414;-71
2022/10/18 11:29:54;;;;;;;28.80;25.23;;;17.70;99.90;;;;;;5072996;28;20430;-71
2022/10/18 11:32:30;;;;;;;34.20;27.27;;;17.80;99.90;;;;;;5070229;28;20427;-70
2022/10/18 11:35:11;;;;;;;32.85;26.92;;;17.90;99.60;;;;;;5068722;28;20449;-69
2022/10/18 11:37:58;;;;;;;29.95;26.10;;;17.90;98.90;;;;;;5067265;28;20435;-69
2022/10/18 11:40:45;;;;;;;33.47;27.75;;;17.90;98.70;;;;;;5075973;28;20427;-70
2022/10/18 11:43:17;;;;;;;30.85;26.88;;;17.90;98.80;;;;;;5066286;28;20416;-70
2022/10/18 11:45:54;;;;;;;30.02;25.50;;;18.20;99.00;;;;;;5073029;28;20485;-70
2022/10/18 11:48:45;;;;;;;25.38;22.88;;;18.60;99.20;;;;;;5063499;28;20414;-69
2022/10/18 11:51:20;;;;;;;26.13;23.38;;;19.00;96.90;;;;;;5066549;28;20417;-68
2022/10/18 11:54:06;;;;;;;26.00;23.50;;;19.20;95.70;;;;;;5063952;28;20419;-70
2022/10/18 11:56:42;;;;;;;26.33;23.83;;;19.10;95.30;;;;;;5061072;28;20520;-70
2022/10/18 11:59:24;;;;;;;25.73;23.13;;;19.00;94.40;;;;;;5070866;28;20411;-69
2022/10/18 12:02:15;;;;;;;24.58;22.27;;;18.90;94.90;;;;;;5070344;28;20828;-68
2022/10/18 12:04:49;;;;;;;24.30;22.10;;;19.30;94.40;;;;;;5069273;28;20423;-71
2022/10/18 12:07:18;;;;;;;25.33;22.93;;;19.80;92.80;;;;;;5067448;28;20446;-69
2022/10/18 12:09:47;;;;;;;24.40;22.20;;;19.90;91.50;;;;;;5064303;28;20460;-68
2022/10/18 12:12:20;;;;;;;25.67;23.30;;;19.90;91.00;;;;;;5068578;28;20429;-68
2022/10/18 12:14:49;;;;;;;27.02;24.42;;;19.80;91.20;;;;;;5079259;28;20418;-68
2022/10/18 12:17:22;;;;;;;26.83;24.23;;;19.70;90.50;;;;;;5082538;28;20448;-70
2022/10/18 12:19:50;;;;;;;26.40;23.80;;;19.70;91.00;;;;;;5074420;28;20498;-68
2022/10/18 12:22:22;;;;;;;29.15;26.25;;;19.60;90.70;;;;;;5074953;28;20411;-70
2022/10/18 12:24:48;;;;;;;28.65;26.00;;;19.40;91.60;;;;;;5074867;28;20434;-69
2022/10/18 12:27:18;;;;;;;32.00;28.87;;;19.20;92.10;;;;;;5071609;28;20418;-70
2022/10/18 12:29:49;;;;;;;32.75;29.45;;;19.10;91.30;;;;;;5071065;28;20601;-70
2022/10/18 12:32:19;;;;;;;35.08;31.38;;;19.00;92.20;;;;;;5070140;28;20414;-69
2022/10/18 12:34:49;;;;;;;34.97;31.67;;;18.80;93.10;;;;;;5070446;28;20418;-70
2022/10/18 12:37:48;;;;;;;32.95;29.63;;;18.80;92.70;;;;;;5066296;28;20438;-69
2022/10/18 12:40:20;;;;;;;35.65;32.15;;;18.70;93.10;;;;;;5064146;28;20409;-69
2022/10/18 12:42:50;;;;;;;35.10;31.80;;;18.70;93.00;;;;;;5082305;28;20479;-69